sensor_id;sensor_type;location;lat;lon;timestamp;P1;durP1;ratioP1;P2;durP2;ratioP2
74543;SDS011;63016;55.030;38.710;2023-02-11T00:01:31;21.92;;;8.65;;
74543;SDS011;63016;55.030;38.710;2023-02-11T00:03:59;23.20;;;8.10;;
74543;SDS011;63016;55.030;38.710;2023-02-11T00:06:25;22.40;;;8.68;;
74543;SDS011;63016;55.030;38.710;2023-02-11T00:08:52;23.13;;;8.18;;
74543;SDS011;63016;55.030;38.710;2023-02-11T00:11:19;21.38;;;8.10;;
74543;SDS011;63016;55.030;38.710;2023-02-11T00:13:46;19.25;;;8.32;;
74543;SDS011;63016;55.030;38.710;2023-02-11T00:16:13;19.50;;;8.02;;
74543;SDS011;63016;55.030;38.710;2023-02-11T00:18:41;20.17;;;8.82;;
74543;SDS011;63016;55.030;38.710;2023-02-11T00:21:08;22.27;;;8.70;;
74543;SDS011;63016;55.030;38.710;2023-02-11T00:23:35;21.15;;;7.70;;
74543;SDS011;63016;55.030;38.710;2023-02-11T00:26:01;24.63;;;8.73;;
74543;SDS011;63016;55.030;38.710;2023-02-11T00:28:27;22.88;;;8.23;;
74543;SDS011;63016;55.030;38.710;2023-02-11T00:30:53;26.20;;;9.88;;
74543;SDS011;63016;55.030;38.710;2023-02-11T00:33:19;24.55;;;9.73;;
74543;SDS011;63016;55.030;38.710;2023-02-11T00:35:45;22.38;;;8.40;;
74543;SDS011;63016;55.030;38.710;2023-02-11T00:38:10;21.70;;;8.40;;
74543;SDS011;63016;55.030;38.710;2023-02-11T00:40:36;19.20;;;7.78;;
74543;SDS011;63016;55.030;38.710;2023-02-11T00:43:01;21.20;;;8.55;;
74543;SDS011;63016;55.030;38.710;2023-02-11T00:45:27;22.90;;;8.75;;
74543;SDS011;63016;55.030;38.710;2023-02-11T00:47:54;22.02;;;8.02;;
74543;SDS011;63016;55.030;38.710;2023-02-11T00:50:20;21.08;;;8.40;;
74543;SDS011;63016;55.030;38.710;2023-02-11T00:52:46;22.50;;;8.50;;
74543;SDS011;63016;55.030;38.710;2023-02-11T00:55:11;22.25;;;8.98;;
74543;SDS011;63016;55.030;38.710;2023-02-11T00:57:37;17.63;;;7.85;;
74543;SDS011;63016;55.030;38.710;2023-02-11T01:00:03;20.23;;;8.50;;
74543;SDS011;63016;55.030;38.710;2023-02-11T01:02:29;20.80;;;8.68;;
74543;SDS011;63016;55.030;38.710;2023-02-11T01:04:55;21.23;;;9.20;;
74543;SDS011;63016;55.030;38.710;2023-02-11T01:07:22;19.20;;;8.02;;
74543;SDS011;63016;55.030;38.710;2023-02-11T01:09:47;23.30;;;8.98;;
74543;SDS011;63016;55.030;38.710;2023-02-11T01:12:13;23.58;;;8.40;;
74543;SDS011;63016;55.030;38.710;2023-02-11T01:14:38;21.60;;;8.35;;
74543;SDS011;63016;55.030;38.710;2023-02-11T01:17:04;21.83;;;7.53;;
74543;SDS011;63016;55.030;38.710;2023-02-11T01:19:30;20.92;;;8.20;;
74543;SDS011;63016;55.030;38.710;2023-02-11T01:21:56;20.25;;;7.82;;
74543;SDS011;63016;55.030;38.710;2023-02-11T01:24:21;20.30;;;7.32;;
74543;SDS011;63016;55.030;38.710;2023-02-11T01:26:46;22.40;;;7.85;;
74543;SDS011;63016;55.030;38.710;2023-02-11T01:29:12;18.92;;;7.45;;
74543;SDS011;63016;55.030;38.710;2023-02-11T01:31:38;22.05;;;8.20;;
74543;SDS011;63016;55.030;38.710;2023-02-11T01:34:03;20.60;;;7.47;;
74543;SDS011;63016;55.030;38.710;2023-02-11T01:36:29;19.88;;;7.93;;
74543;SDS011;63016;55.030;38.710;2023-02-11T01:38:54;21.63;;;8.43;;
74543;SDS011;63016;55.030;38.710;2023-02-11T01:41:19;22.55;;;8.13;;
74543;SDS011;63016;55.030;38.710;2023-02-11T01:43:46;21.27;;;8.10;;
74543;SDS011;63016;55.030;38.710;2023-02-11T01:49:05;22.27;;;8.03;;
74543;SDS011;63016;55.030;38.710;2023-02-11T01:51:47;23.25;;;7.60;;
74543;SDS011;63016;55.030;38.710;2023-02-11T01:54:18;18.35;;;7.45;;
74543;SDS011;63016;55.030;38.710;2023-02-11T01:57:05;22.27;;;7.53;;
74543;SDS011;63016;55.030;38.710;2023-02-11T01:59:53;20.73;;;7.23;;
74543;SDS011;63016;55.030;38.710;2023-02-11T02:07:44;20.58;;;7.25;;
74543;SDS011;63016;55.030;38.710;2023-02-11T02:10:27;20.33;;;7.15;;
74543;SDS011;63016;55.030;38.710;2023-02-11T02:12:54;22.90;;;7.55;;
74543;SDS011;63016;55.030;38.710;2023-02-11T02:15:24;22.40;;;7.78;;
74543;SDS011;63016;55.030;38.710;2023-02-11T02:17:54;21.33;;;7.30;;
74543;SDS011;63016;55.030;38.710;2023-02-11T02:20:30;19.70;;;7.67;;
74543;SDS011;63016;55.030;38.710;2023-02-11T02:29:13;23.00;;;7.20;;
74543;SDS011;63016;55.030;38.710;2023-02-11T02:40:35;19.33;;;6.70;;
74543;SDS011;63016;55.030;38.710;2023-02-11T02:43:06;17.42;;;6.32;;
74543;SDS011;63016;55.030;38.710;2023-02-11T02:45:34;18.23;;;6.30;;
74543;SDS011;63016;55.030;38.710;2023-02-11T02:48:00;17.65;;;6.25;;
74543;SDS011;63016;55.030;38.710;2023-02-11T02:50:28;16.45;;;6.22;;
74543;SDS011;63016;55.030;38.710;2023-02-11T02:53:06;15.65;;;5.60;;
74543;SDS011;63016;55.030;38.710;2023-02-11T02:55:53;14.32;;;6.40;;
74543;SDS011;63016;55.030;38.710;2023-02-11T03:02:05;16.90;;;6.32;;
74543;SDS011;63016;55.030;38.710;2023-02-11T03:10:22;18.40;;;5.53;;
74543;SDS011;63016;55.030;38.710;2023-02-11T03:13:00;18.33;;;6.07;;
74543;SDS011;63016;55.030;38.710;2023-02-11T03:15:28;16.15;;;5.75;;
74543;SDS011;63016;55.030;38.710;2023-02-11T03:17:59;17.52;;;5.80;;
74543;SDS011;63016;55.030;38.710;2023-02-11T03:20:26;20.17;;;5.80;;
74543;SDS011;63016;55.030;38.710;2023-02-11T03:22:54;15.68;;;5.55;;
74543;SDS011;63016;55.030;38.710;2023-02-11T03:25:27;18.38;;;6.18;;
74543;SDS011;63016;55.030;38.710;2023-02-11T03:28:02;17.80;;;5.82;;
74543;SDS011;63016;55.030;38.710;2023-02-11T03:30:38;17.75;;;5.43;;
74543;SDS011;63016;55.030;38.710;2023-02-11T03:33:12;16.08;;;5.60;;
74543;SDS011;63016;55.030;38.710;2023-02-11T03:38:19;13.80;;;5.10;;
74543;SDS011;63016;55.030;38.710;2023-02-11T03:40:47;18.10;;;5.50;;
74543;SDS011;63016;55.030;38.710;2023-02-11T03:43:16;11.40;;;4.78;;
74543;SDS011;63016;55.030;38.710;2023-02-11T03:45:45;16.90;;;6.03;;
74543;SDS011;63016;55.030;38.710;2023-02-11T03:48:15;16.70;;;5.55;;
74543;SDS011;63016;55.030;38.710;2023-02-11T03:50:45;17.73;;;5.78;;
74543;SDS011;63016;55.030;38.710;2023-02-11T03:53:14;20.08;;;5.50;;
74543;SDS011;63016;55.030;38.710;2023-02-11T03:55:40;13.98;;;5.32;;
74543;SDS011;63016;55.030;38.710;2023-02-11T03:58:08;14.38;;;5.35;;
74543;SDS011;63016;55.030;38.710;2023-02-11T04:00:38;19.55;;;5.57;;
74543;SDS011;63016;55.030;38.710;2023-02-11T04:03:05;14.30;;;4.82;;
74543;SDS011;63016;55.030;38.710;2023-02-11T04:05:31;10.93;;;4.78;;
74543;SDS011;63016;55.030;38.710;2023-02-11T04:07:57;13.45;;;4.45;;
74543;SDS011;63016;55.030;38.710;2023-02-11T04:10:23;20.02;;;5.15;;
74543;SDS011;63016;55.030;38.710;2023-02-11T04:12:48;14.60;;;5.18;;
74543;SDS011;63016;55.030;38.710;2023-02-11T04:15:14;13.85;;;5.28;;
74543;SDS011;63016;55.030;38.710;2023-02-11T04:17:40;12.30;;;4.55;;
74543;SDS011;63016;55.030;38.710;2023-02-11T04:20:05;15.23;;;5.05;;
74543;SDS011;63016;55.030;38.710;2023-02-11T04:22:32;16.92;;;5.53;;
74543;SDS011;63016;55.030;38.710;2023-02-11T04:24:57;16.35;;;5.13;;
74543;SDS011;63016;55.030;38.710;2023-02-11T04:27:23;12.70;;;4.53;;
74543;SDS011;63016;55.030;38.710;2023-02-11T04:29:48;14.95;;;4.38;;
74543;SDS011;63016;55.030;38.710;2023-02-11T04:32:14;12.77;;;4.88;;
74543;SDS011;63016;55.030;38.710;2023-02-11T04:34:40;14.60;;;5.03;;
74543;SDS011;63016;55.030;38.710;2023-02-11T04:37:05;19.13;;;5.20;;
74543;SDS011;63016;55.030;38.710;2023-02-11T04:39:32;19.58;;;5.28;;
74543;SDS011;63016;55.030;38.710;2023-02-11T04:41:58;15.27;;;5.15;;
74543;SDS011;63016;55.030;38.710;2023-02-11T04:44:24;14.30;;;4.93;;
74543;SDS011;63016;55.030;38.710;2023-02-11T04:46:49;19.40;;;5.15;;
74543;SDS011;63016;55.030;38.710;2023-02-11T04:49:15;16.60;;;5.75;;
74543;SDS011;63016;55.030;38.710;2023-02-11T04:51:41;11.40;;;4.47;;
74543;SDS011;63016;55.030;38.710;2023-02-11T04:54:07;13.90;;;5.03;;
74543;SDS011;63016;55.030;38.710;2023-02-11T04:56:33;16.55;;;5.38;;
74543;SDS011;63016;55.030;38.710;2023-02-11T04:58:58;13.95;;;5.22;;
74543;SDS011;63016;55.030;38.710;2023-02-11T05:01:24;13.73;;;4.95;;
74543;SDS011;63016;55.030;38.710;2023-02-11T05:03:49;16.70;;;4.57;;
74543;SDS011;63016;55.030;38.710;2023-02-11T05:06:15;14.40;;;5.13;;
74543;SDS011;63016;55.030;38.710;2023-02-11T05:08:40;14.93;;;4.80;;
74543;SDS011;63016;55.030;38.710;2023-02-11T05:11:06;17.90;;;5.28;;
74543;SDS011;63016;55.030;38.710;2023-02-11T05:13:32;13.82;;;4.72;;
74543;SDS011;63016;55.030;38.710;2023-02-11T05:15:57;12.07;;;5.13;;
74543;SDS011;63016;55.030;38.710;2023-02-11T05:18:23;14.15;;;4.78;;
74543;SDS011;63016;55.030;38.710;2023-02-11T05:20:48;15.82;;;4.72;;
74543;SDS011;63016;55.030;38.710;2023-02-11T05:23:14;13.07;;;4.82;;
74543;SDS011;63016;55.030;38.710;2023-02-11T05:25:39;18.13;;;4.93;;
74543;SDS011;63016;55.030;38.710;2023-02-11T05:28:05;15.32;;;4.90;;
74543;SDS011;63016;55.030;38.710;2023-02-11T05:30:31;17.42;;;5.47;;
74543;SDS011;63016;55.030;38.710;2023-02-11T05:32:57;12.88;;;5.30;;
74543;SDS011;63016;55.030;38.710;2023-02-11T05:35:22;11.48;;;4.97;;
74543;SDS011;63016;55.030;38.710;2023-02-11T05:37:48;15.50;;;4.43;;
74543;SDS011;63016;55.030;38.710;2023-02-11T05:40:14;11.27;;;4.75;;
74543;SDS011;63016;55.030;38.710;2023-02-11T05:42:40;12.95;;;4.18;;
74543;SDS011;63016;55.030;38.710;2023-02-11T05:45:05;13.73;;;5.35;;
74543;SDS011;63016;55.030;38.710;2023-02-11T05:47:31;12.50;;;4.57;;
74543;SDS011;63016;55.030;38.710;2023-02-11T05:49:57;11.05;;;4.03;;
74543;SDS011;63016;55.030;38.710;2023-02-11T05:52:22;13.65;;;4.60;;
74543;SDS011;63016;55.030;38.710;2023-02-11T05:54:48;14.25;;;4.68;;
74543;SDS011;63016;55.030;38.710;2023-02-11T05:57:14;13.40;;;4.65;;
74543;SDS011;63016;55.030;38.710;2023-02-11T05:59:40;13.13;;;4.28;;
74543;SDS011;63016;55.030;38.710;2023-02-11T06:02:06;8.57;;;3.95;;
74543;SDS011;63016;55.030;38.710;2023-02-11T06:04:33;20.70;;;8.13;;
74543;SDS011;63016;55.030;38.710;2023-02-11T06:06:59;17.25;;;5.75;;
74543;SDS011;63016;55.030;38.710;2023-02-11T06:09:25;18.40;;;8.00;;
74543;SDS011;63016;55.030;38.710;2023-02-11T06:11:50;12.55;;;4.93;;
74543;SDS011;63016;55.030;38.710;2023-02-11T06:14:16;17.02;;;5.28;;
74543;SDS011;63016;55.030;38.710;2023-02-11T06:16:42;12.30;;;4.63;;
74543;SDS011;63016;55.030;38.710;2023-02-11T06:19:07;12.80;;;4.28;;
74543;SDS011;63016;55.030;38.710;2023-02-11T06:21:33;11.55;;;4.25;;
74543;SDS011;63016;55.030;38.710;2023-02-11T06:23:59;18.05;;;6.20;;
74543;SDS011;63016;55.030;38.710;2023-02-11T06:26:24;16.45;;;6.65;;
74543;SDS011;63016;55.030;38.710;2023-02-11T06:28:50;14.32;;;5.90;;
74543;SDS011;63016;55.030;38.710;2023-02-11T06:31:15;10.93;;;4.20;;
74543;SDS011;63016;55.030;38.710;2023-02-11T06:33:41;12.02;;;3.65;;
74543;SDS011;63016;55.030;38.710;2023-02-11T06:36:14;13.75;;;4.72;;
74543;SDS011;63016;55.030;38.710;2023-02-11T06:38:42;15.63;;;4.40;;
74543;SDS011;63016;55.030;38.710;2023-02-11T06:41:08;9.10;;;3.55;;
74543;SDS011;63016;55.030;38.710;2023-02-11T06:43:35;13.43;;;3.70;;
74543;SDS011;63016;55.030;38.710;2023-02-11T06:46:00;13.70;;;4.55;;
74543;SDS011;63016;55.030;38.710;2023-02-11T06:48:26;7.63;;;4.13;;
74543;SDS011;63016;55.030;38.710;2023-02-11T06:50:51;10.35;;;4.10;;
74543;SDS011;63016;55.030;38.710;2023-02-11T06:53:17;11.27;;;3.95;;
74543;SDS011;63016;55.030;38.710;2023-02-11T06:55:43;13.25;;;3.80;;
74543;SDS011;63016;55.030;38.710;2023-02-11T06:58:08;12.93;;;4.10;;
74543;SDS011;63016;55.030;38.710;2023-02-11T07:00:36;10.85;;;4.00;;
74543;SDS011;63016;55.030;38.710;2023-02-11T07:03:01;12.73;;;4.47;;
74543;SDS011;63016;55.030;38.710;2023-02-11T07:05:27;13.07;;;4.40;;
74543;SDS011;63016;55.030;38.710;2023-02-11T07:07:52;10.90;;;3.88;;
74543;SDS011;63016;55.030;38.710;2023-02-11T07:10:18;11.73;;;4.15;;
74543;SDS011;63016;55.030;38.710;2023-02-11T07:12:43;16.45;;;4.22;;
74543;SDS011;63016;55.030;38.710;2023-02-11T07:15:09;12.10;;;3.45;;
74543;SDS011;63016;55.030;38.710;2023-02-11T07:17:35;8.93;;;4.03;;
74543;SDS011;63016;55.030;38.710;2023-02-11T07:20:00;8.52;;;3.63;;
74543;SDS011;63016;55.030;38.710;2023-02-11T07:22:26;12.25;;;4.20;;
74543;SDS011;63016;55.030;38.710;2023-02-11T07:24:52;13.73;;;3.83;;
74543;SDS011;63016;55.030;38.710;2023-02-11T07:27:17;9.52;;;3.78;;
74543;SDS011;63016;55.030;38.710;2023-02-11T07:29:43;10.27;;;3.90;;
74543;SDS011;63016;55.030;38.710;2023-02-11T07:32:11;12.38;;;4.78;;
74543;SDS011;63016;55.030;38.710;2023-02-11T07:34:37;14.73;;;5.70;;
74543;SDS011;63016;55.030;38.710;2023-02-11T07:37:03;12.90;;;4.55;;
74543;SDS011;63016;55.030;38.710;2023-02-11T07:39:28;11.32;;;4.63;;
74543;SDS011;63016;55.030;38.710;2023-02-11T07:41:54;15.60;;;5.25;;
74543;SDS011;63016;55.030;38.710;2023-02-11T07:44:20;11.98;;;4.78;;
74543;SDS011;63016;55.030;38.710;2023-02-11T07:46:46;13.00;;;4.47;;
74543;SDS011;63016;55.030;38.710;2023-02-11T07:49:13;13.07;;;4.82;;
74543;SDS011;63016;55.030;38.710;2023-02-11T07:51:39;14.48;;;4.53;;
74543;SDS011;63016;55.030;38.710;2023-02-11T07:54:05;14.65;;;5.30;;
74543;SDS011;63016;55.030;38.710;2023-02-11T07:56:31;12.68;;;5.40;;
74543;SDS011;63016;55.030;38.710;2023-02-11T07:58:59;12.15;;;4.85;;
74543;SDS011;63016;55.030;38.710;2023-02-11T08:01:26;10.02;;;4.82;;
74543;SDS011;63016;55.030;38.710;2023-02-11T08:03:52;11.88;;;4.90;;
74543;SDS011;63016;55.030;38.710;2023-02-11T08:06:20;13.52;;;5.28;;
74543;SDS011;63016;55.030;38.710;2023-02-11T08:08:47;12.65;;;4.60;;
74543;SDS011;63016;55.030;38.710;2023-02-11T08:13:43;30.65;;;11.38;;
74543;SDS011;63016;55.030;38.710;2023-02-11T08:18:42;16.13;;;5.93;;
74543;SDS011;63016;55.030;38.710;2023-02-11T08:21:09;15.98;;;5.40;;
74543;SDS011;63016;55.030;38.710;2023-02-11T08:23:35;38.53;;;15.85;;
74543;SDS011;63016;55.030;38.710;2023-02-11T08:26:06;18.75;;;7.63;;
74543;SDS011;63016;55.030;38.710;2023-02-11T08:28:34;34.58;;;9.35;;
74543;SDS011;63016;55.030;38.710;2023-02-11T08:31:21;20.80;;;7.18;;
74543;SDS011;63016;55.030;38.710;2023-02-11T08:33:55;19.10;;;7.43;;
74543;SDS011;63016;55.030;38.710;2023-02-11T08:36:27;26.30;;;9.23;;
74543;SDS011;63016;55.030;38.710;2023-02-11T08:38:55;39.28;;;17.65;;
74543;SDS011;63016;55.030;38.710;2023-02-11T08:41:23;30.33;;;13.23;;
74543;SDS011;63016;55.030;38.710;2023-02-11T08:43:49;55.45;;;27.17;;
74543;SDS011;63016;55.030;38.710;2023-02-11T08:46:16;66.85;;;34.47;;
74543;SDS011;63016;55.030;38.710;2023-02-11T08:48:43;45.25;;;22.80;;
74543;SDS011;63016;55.030;38.710;2023-02-11T08:51:11;66.30;;;31.60;;
74543;SDS011;63016;55.030;38.710;2023-02-11T08:53:39;58.95;;;29.67;;
74543;SDS011;63016;55.030;38.710;2023-02-11T08:56:05;49.47;;;22.88;;
74543;SDS011;63016;55.030;38.710;2023-02-11T08:58:31;119.40;;;68.13;;
74543;SDS011;63016;55.030;38.710;2023-02-11T09:00:57;78.32;;;42.25;;
74543;SDS011;63016;55.030;38.710;2023-02-11T09:03:23;75.38;;;45.28;;
74543;SDS011;63016;55.030;38.710;2023-02-11T09:05:48;62.33;;;37.97;;
74543;SDS011;63016;55.030;38.710;2023-02-11T09:08:17;69.18;;;40.35;;
74543;SDS011;63016;55.030;38.710;2023-02-11T09:10:43;46.95;;;26.05;;
74543;SDS011;63016;55.030;38.710;2023-02-11T09:13:09;50.65;;;33.00;;
74543;SDS011;63016;55.030;38.710;2023-02-11T09:15:35;36.55;;;21.77;;
74543;SDS011;63016;55.030;38.710;2023-02-11T09:18:01;28.88;;;16.13;;
74543;SDS011;63016;55.030;38.710;2023-02-11T09:20:28;29.25;;;15.60;;
74543;SDS011;63016;55.030;38.710;2023-02-11T09:22:53;19.60;;;9.85;;
74543;SDS011;63016;55.030;38.710;2023-02-11T09:25:22;14.43;;;7.68;;
74543;SDS011;63016;55.030;38.710;2023-02-11T09:27:48;14.48;;;6.32;;
74543;SDS011;63016;55.030;38.710;2023-02-11T09:30:14;17.90;;;7.22;;
74543;SDS011;63016;55.030;38.710;2023-02-11T09:32:39;21.20;;;10.43;;
74543;SDS011;63016;55.030;38.710;2023-02-11T09:35:05;14.95;;;6.57;;
74543;SDS011;63016;55.030;38.710;2023-02-11T09:37:31;13.10;;;5.40;;
74543;SDS011;63016;55.030;38.710;2023-02-11T09:39:56;10.20;;;4.68;;
74543;SDS011;63016;55.030;38.710;2023-02-11T09:45:09;13.95;;;5.82;;
74543;SDS011;63016;55.030;38.710;2023-02-11T09:47:52;18.13;;;8.77;;
74543;SDS011;63016;55.030;38.710;2023-02-11T09:50:54;21.85;;;11.20;;
74543;SDS011;63016;55.030;38.710;2023-02-11T09:53:23;24.15;;;11.65;;
74543;SDS011;63016;55.030;38.710;2023-02-11T09:55:53;22.10;;;11.65;;
74543;SDS011;63016;55.030;38.710;2023-02-11T09:58:42;29.38;;;13.63;;
74543;SDS011;63016;55.030;38.710;2023-02-11T10:14:59;30.23;;;15.30;;
74543;SDS011;63016;55.030;38.710;2023-02-11T10:22:49;49.10;;;23.02;;
74543;SDS011;63016;55.030;38.710;2023-02-11T10:25:19;38.08;;;16.33;;
74543;SDS011;63016;55.030;38.710;2023-02-11T10:27:47;31.48;;;15.77;;
74543;SDS011;63016;55.030;38.710;2023-02-11T10:30:18;24.08;;;10.10;;
74543;SDS011;63016;55.030;38.710;2023-02-11T10:33:04;27.95;;;12.70;;
74543;SDS011;63016;55.030;38.710;2023-02-11T10:35:52;22.27;;;11.57;;
74543;SDS011;63016;55.030;38.710;2023-02-11T10:38:18;22.08;;;10.73;;
74543;SDS011;63016;55.030;38.710;2023-02-11T10:40:44;25.90;;;10.77;;
74543;SDS011;63016;55.030;38.710;2023-02-11T10:43:10;20.17;;;8.90;;
74543;SDS011;63016;55.030;38.710;2023-02-11T10:45:48;21.80;;;8.30;;
74543;SDS011;63016;55.030;38.710;2023-02-11T10:53:37;18.42;;;8.05;;
74543;SDS011;63016;55.030;38.710;2023-02-11T10:56:03;17.65;;;7.03;;
74543;SDS011;63016;55.030;38.710;2023-02-11T10:58:31;19.88;;;8.38;;
74543;SDS011;63016;55.030;38.710;2023-02-11T11:01:11;20.83;;;8.82;;
74543;SDS011;63016;55.030;38.710;2023-02-11T11:03:38;14.48;;;6.70;;
74543;SDS011;63016;55.030;38.710;2023-02-11T11:06:10;22.88;;;10.20;;
74543;SDS011;63016;55.030;38.710;2023-02-11T11:08:44;56.70;;;23.92;;
74543;SDS011;63016;55.030;38.710;2023-02-11T11:11:15;51.05;;;23.30;;
74543;SDS011;63016;55.030;38.710;2023-02-11T11:13:42;31.15;;;15.40;;
74543;SDS011;63016;55.030;38.710;2023-02-11T11:21:45;25.48;;;11.70;;
74543;SDS011;63016;55.030;38.710;2023-02-11T11:24:25;22.55;;;10.20;;
74543;SDS011;63016;55.030;38.710;2023-02-11T11:26:54;21.67;;;8.18;;
74543;SDS011;63016;55.030;38.710;2023-02-11T11:29:37;17.05;;;6.60;;
74543;SDS011;63016;55.030;38.710;2023-02-11T11:35:27;17.48;;;6.88;;
74543;SDS011;63016;55.030;38.710;2023-02-11T11:37:57;17.27;;;6.63;;
74543;SDS011;63016;55.030;38.710;2023-02-11T11:45:29;24.73;;;9.27;;
74543;SDS011;63016;55.030;38.710;2023-02-11T11:50:40;25.42;;;9.23;;
74543;SDS011;63016;55.030;38.710;2023-02-11T11:56:06;31.25;;;11.95;;
74543;SDS011;63016;55.030;38.710;2023-02-11T11:58:37;45.30;;;14.23;;
74543;SDS011;63016;55.030;38.710;2023-02-11T12:14:46;16.92;;;5.57;;
74543;SDS011;63016;55.030;38.710;2023-02-11T12:19:54;16.55;;;5.20;;
74543;SDS011;63016;55.030;38.710;2023-02-11T12:25:35;11.65;;;5.18;;
74543;SDS011;63016;55.030;38.710;2023-02-11T12:37:20;16.17;;;5.70;;
74543;SDS011;63016;55.030;38.710;2023-02-11T12:42:54;20.88;;;5.93;;
74543;SDS011;63016;55.030;38.710;2023-02-11T12:54:09;13.35;;;5.45;;
74543;SDS011;63016;55.030;38.710;2023-02-11T12:56:44;15.98;;;5.95;;
74543;SDS011;63016;55.030;38.710;2023-02-11T12:59:28;13.52;;;5.50;;
74543;SDS011;63016;55.030;38.710;2023-02-11T13:04:49;15.10;;;5.88;;
74543;SDS011;63016;55.030;38.710;2023-02-11T13:07:42;17.95;;;6.18;;
74543;SDS011;63016;55.030;38.710;2023-02-11T13:10:21;19.00;;;5.97;;
74543;SDS011;63016;55.030;38.710;2023-02-11T13:13:00;15.65;;;5.90;;
74543;SDS011;63016;55.030;38.710;2023-02-11T13:15:50;11.85;;;5.65;;
74543;SDS011;63016;55.030;38.710;2023-02-11T13:26:33;14.85;;;5.45;;
74543;SDS011;63016;55.030;38.710;2023-02-11T13:32:12;17.02;;;6.05;;
74543;SDS011;63016;55.030;38.710;2023-02-11T13:37:20;17.10;;;6.07;;
74543;SDS011;63016;55.030;38.710;2023-02-11T13:42:49;18.17;;;5.78;;
74543;SDS011;63016;55.030;38.710;2023-02-11T13:45:20;14.38;;;5.85;;
74543;SDS011;63016;55.030;38.710;2023-02-11T13:47:57;15.65;;;5.97;;
74543;SDS011;63016;55.030;38.710;2023-02-11T13:50:26;17.50;;;6.10;;
74543;SDS011;63016;55.030;38.710;2023-02-11T13:52:57;16.15;;;5.63;;
74543;SDS011;63016;55.030;38.710;2023-02-11T13:55:25;17.15;;;5.93;;
74543;SDS011;63016;55.030;38.710;2023-02-11T14:17:33;22.38;;;5.75;;
74543;SDS011;63016;55.030;38.710;2023-02-11T14:20:00;24.80;;;6.22;;
74543;SDS011;63016;55.030;38.710;2023-02-11T14:22:46;52.65;;;18.00;;
74543;SDS011;63016;55.030;38.710;2023-02-11T14:25:17;44.00;;;15.40;;
74543;SDS011;63016;55.030;38.710;2023-02-11T14:28:02;49.90;;;19.73;;
74543;SDS011;63016;55.030;38.710;2023-02-11T14:41:38;21.23;;;10.57;;
74543;SDS011;63016;55.030;38.710;2023-02-11T14:44:22;27.35;;;11.05;;
74543;SDS011;63016;55.030;38.710;2023-02-11T14:46:54;40.20;;;16.73;;
74543;SDS011;63016;55.030;38.710;2023-02-11T14:49:32;98.93;;;39.45;;
74543;SDS011;63016;55.030;38.710;2023-02-11T14:52:15;84.88;;;35.55;;
74543;SDS011;63016;55.030;38.710;2023-02-11T14:54:42;78.82;;;32.65;;
74543;SDS011;63016;55.030;38.710;2023-02-11T14:57:13;57.60;;;24.77;;
74543;SDS011;63016;55.030;38.710;2023-02-11T15:02:23;28.77;;;11.13;;
74543;SDS011;63016;55.030;38.710;2023-02-11T15:04:53;26.10;;;11.00;;
74543;SDS011;63016;55.030;38.710;2023-02-11T15:07:19;24.75;;;11.45;;
74543;SDS011;63016;55.030;38.710;2023-02-11T15:09:49;25.85;;;12.07;;
74543;SDS011;63016;55.030;38.710;2023-02-11T15:12:26;23.17;;;11.27;;
74543;SDS011;63016;55.030;38.710;2023-02-11T15:14:56;23.60;;;11.73;;
74543;SDS011;63016;55.030;38.710;2023-02-11T15:17:25;19.33;;;10.27;;
74543;SDS011;63016;55.030;38.710;2023-02-11T15:19:54;24.30;;;11.02;;
74543;SDS011;63016;55.030;38.710;2023-02-11T15:22:28;22.70;;;8.68;;
74543;SDS011;63016;55.030;38.710;2023-02-11T15:27:38;23.42;;;7.25;;
74543;SDS011;63016;55.030;38.710;2023-02-11T15:32:46;23.45;;;7.25;;
74543;SDS011;63016;55.030;38.710;2023-02-11T15:35:12;15.95;;;7.05;;
74543;SDS011;63016;55.030;38.710;2023-02-11T15:37:38;16.73;;;7.03;;
74543;SDS011;63016;55.030;38.710;2023-02-11T15:40:08;18.92;;;7.55;;
74543;SDS011;63016;55.030;38.710;2023-02-11T15:42:34;19.33;;;6.65;;
74543;SDS011;63016;55.030;38.710;2023-02-11T15:45:08;16.98;;;6.85;;
74543;SDS011;63016;55.030;38.710;2023-02-11T15:47:36;17.80;;;7.28;;
74543;SDS011;63016;55.030;38.710;2023-02-11T15:50:03;15.52;;;7.45;;
74543;SDS011;63016;55.030;38.710;2023-02-11T15:52:30;20.50;;;7.00;;
74543;SDS011;63016;55.030;38.710;2023-02-11T15:54:56;24.85;;;8.25;;
74543;SDS011;63016;55.030;38.710;2023-02-11T15:57:26;16.20;;;6.20;;
74543;SDS011;63016;55.030;38.710;2023-02-11T15:59:52;18.08;;;7.43;;
74543;SDS011;63016;55.030;38.710;2023-02-11T16:02:30;20.52;;;6.53;;
74543;SDS011;63016;55.030;38.710;2023-02-11T16:04:59;21.65;;;6.82;;
74543;SDS011;63016;55.030;38.710;2023-02-11T16:07:44;21.90;;;8.50;;
74543;SDS011;63016;55.030;38.710;2023-02-11T16:10:15;21.25;;;9.98;;
74543;SDS011;63016;55.030;38.710;2023-02-11T16:12:58;20.77;;;8.93;;
74543;SDS011;63016;55.030;38.710;2023-02-11T16:18:13;25.83;;;11.90;;
74543;SDS011;63016;55.030;38.710;2023-02-11T16:20:47;31.17;;;10.95;;
74543;SDS011;63016;55.030;38.710;2023-02-11T16:23:17;27.98;;;10.18;;
74543;SDS011;63016;55.030;38.710;2023-02-11T16:25:47;24.95;;;9.80;;
74543;SDS011;63016;55.030;38.710;2023-02-11T16:28:13;24.77;;;8.95;;
74543;SDS011;63016;55.030;38.710;2023-02-11T16:30:40;16.33;;;6.93;;
74543;SDS011;63016;55.030;38.710;2023-02-11T16:33:07;20.80;;;7.85;;
74543;SDS011;63016;55.030;38.710;2023-02-11T16:35:35;20.38;;;7.47;;
74543;SDS011;63016;55.030;38.710;2023-02-11T16:38:01;18.83;;;6.50;;
74543;SDS011;63016;55.030;38.710;2023-02-11T16:40:27;18.83;;;7.80;;
74543;SDS011;63016;55.030;38.710;2023-02-11T16:42:53;16.40;;;6.75;;
74543;SDS011;63016;55.030;38.710;2023-02-11T16:45:18;19.52;;;7.32;;
74543;SDS011;63016;55.030;38.710;2023-02-11T16:47:44;23.85;;;7.68;;
74543;SDS011;63016;55.030;38.710;2023-02-11T16:50:11;15.18;;;6.47;;
74543;SDS011;63016;55.030;38.710;2023-02-11T16:52:46;18.73;;;7.00;;
74543;SDS011;63016;55.030;38.710;2023-02-11T16:55:12;22.60;;;7.75;;
74543;SDS011;63016;55.030;38.710;2023-02-11T16:57:38;28.15;;;8.27;;
74543;SDS011;63016;55.030;38.710;2023-02-11T17:00:05;33.05;;;10.48;;
74543;SDS011;63016;55.030;38.710;2023-02-11T17:02:32;794.42;;;57.85;;
74543;SDS011;63016;55.030;38.710;2023-02-11T17:05:01;46.03;;;13.00;;
74543;SDS011;63016;55.030;38.710;2023-02-11T17:07:28;34.20;;;10.82;;
74543;SDS011;63016;55.030;38.710;2023-02-11T17:09:54;29.55;;;10.75;;
74543;SDS011;63016;55.030;38.710;2023-02-11T17:12:20;28.13;;;9.32;;
74543;SDS011;63016;55.030;38.710;2023-02-11T17:14:46;25.60;;;9.68;;
74543;SDS011;63016;55.030;38.710;2023-02-11T17:17:12;32.72;;;9.48;;
74543;SDS011;63016;55.030;38.710;2023-02-11T17:19:38;37.20;;;10.00;;
74543;SDS011;63016;55.030;38.710;2023-02-11T17:22:03;44.70;;;10.85;;
74543;SDS011;63016;55.030;38.710;2023-02-11T17:24:30;27.08;;;10.55;;
74543;SDS011;63016;55.030;38.710;2023-02-11T17:26:55;51.72;;;13.30;;
74543;SDS011;63016;55.030;38.710;2023-02-11T17:29:22;49.22;;;11.48;;
74543;SDS011;63016;55.030;38.710;2023-02-11T17:31:49;28.52;;;9.73;;
74543;SDS011;63016;55.030;38.710;2023-02-11T17:34:17;27.67;;;9.00;;
74543;SDS011;63016;55.030;38.710;2023-02-11T17:36:45;27.70;;;9.35;;